Ypsilanti, MI

6:46 PM EST on December 18, 2014 (GMT -0500)
AIRNow YPSILANTI MI MIDNRE | Change Station
CLOSE
Current Station
Personal Weather Station
Location: Superior Township, MI
Elevation: 756 ft
Nearby Weather Stations
Active Advisory: Special Statement

Elev 756 ft 42.24 °N, 83.60 °W | Updated 168 days ago

Cloudy
Cloudy
32 °F
Feels Like 32 °F
N
3
Wind Variable Wind from WNW
Gusts 6 mph

Today
High -- | Low -- °F
--% Chance of Precip.
Yesterday
High -- | Low -- °F
Precip. -- in
7:58 AM 5:03 PM
Waning Crescent, 11% visible
Pressure 30.17 in
Visibility 7.0 miles
Clouds Mostly Cloudy 1000 ft
Overcast 1500 ft
Dew Point 25 °F
Humidity 71%
Rainfall -999.00 in
Snow Depth Not available.
UV 0 out of 12
Pollen .10 out of 12
Air Quality Not available.
Flu Activity Not available.
SPECI KARB 182338Z 28006KT 7SM BKN010 OVC015 M01/M02 A3017 RMK AO2 CIG 007V011 I1000 T10061022

More Conditions Fewer Conditions

Pressure 30.17 in
Visibility 7.0 miles
Clouds Mostly Cloudy 1000 ft
Overcast 1500 ft
Dew Point 25 °F
Humidity 71%
Rainfall -999.00 in
Snow Depth Not available.
UV 0 out of 12
Pollen .10 out of 12
Air Quality Not available.
Flu Activity Not available.
SPECI KARB 182338Z 28006KT 7SM BKN010 OVC015 M01/M02 A3017 RMK AO2 CIG 007V011 I1000 T10061022

More Conditions Fewer Conditions

10-Day Weather Forecast

Almanac

Astronomy

Dec. 18, 2014 Rise Set
Actual Time
Civil Twilight
Nautical Twilight
Astronomical Twilight
Moon
Length of Visible Light
Length of Day
Tomorrow will be .
, % of the Moon is Illuminated

Today's Extremes

State Highs State Lows

Community

WunderPhotos

Upload Photos

1,779,012 photos uploaded!

WunderBlogs® & News

Nearby

Air Quality

  Air Quality AQ Index Pollutant
Not available.

Snow Depth

Station Depth Elevation

Earthquake Activity

City Distance Mag. Time & Date
Minimum magnitude displayed is 2.5.

Coastal Water Temperatures

Place Temperature

Nearby Weather Stations